sensor_id;sensor_type;location;lat;lon;timestamp;pressure;altitude;pressure_sealevel;temperature;humidity
40596;BME280;26304;48.794;9.820;2022-10-16T00:03:51;96266.41;;;18.93;74.54
40596;BME280;26304;48.794;9.820;2022-10-16T00:09:33;96259.63;;;18.92;74.63
40596;BME280;26304;48.794;9.820;2022-10-16T00:15:16;96285.94;;;18.92;74.65
40596;BME280;26304;48.794;9.820;2022-10-16T00:21:04;96289.72;;;18.94;74.33
40596;BME280;26304;48.794;9.820;2022-10-16T00:26:49;96286.31;;;18.86;74.62
40596;BME280;26304;48.794;9.820;2022-10-16T00:32:32;96295.38;;;18.89;74.62
40596;BME280;26304;48.794;9.820;2022-10-16T00:38:16;96291.97;;;18.88;74.75
40596;BME280;26304;48.794;9.820;2022-10-16T00:44:00;96286.69;;;18.92;74.20
40596;BME280;26304;48.794;9.820;2022-10-16T00:49:43;96292.69;;;18.82;74.74
40596;BME280;26304;48.794;9.820;2022-10-16T00:55:27;96288.97;;;18.86;74.47
40596;BME280;26304;48.794;9.820;2022-10-16T01:01:11;96292.75;;;18.96;73.61
40596;BME280;26304;48.794;9.820;2022-10-16T01:07:01;96291.22;;;18.88;74.12
40596;BME280;26304;48.794;9.820;2022-10-16T01:12:52;96295.31;;;18.82;74.60
40596;BME280;26304;48.794;9.820;2022-10-16T01:18:39;96307.03;;;18.84;73.96
40596;BME280;26304;48.794;9.820;2022-10-16T01:24:31;96296.13;;;18.90;73.92
40596;BME280;26304;48.794;9.820;2022-10-16T01:30:20;96291.97;;;18.85;74.10
40596;BME280;26304;48.794;9.820;2022-10-16T01:36:10;96301.00;;;18.87;74.07
40596;BME280;26304;48.794;9.820;2022-10-16T01:41:57;96304.41;;;18.84;73.93
40596;BME280;26304;48.794;9.820;2022-10-16T01:47:45;96309.22;;;18.82;73.90
40596;BME280;26304;48.794;9.820;2022-10-16T01:53:29;96320.50;;;18.79;73.51
40596;BME280;26304;48.794;9.820;2022-10-16T01:59:15;96303.97;;;18.79;73.52
40596;BME280;26304;48.794;9.820;2022-10-16T02:05:05;96320.88;;;18.78;73.67
40596;BME280;26304;48.794;9.820;2022-10-16T02:10:50;96316.00;;;18.80;73.47
40596;BME280;26304;48.794;9.820;2022-10-16T02:16:34;96303.22;;;18.78;73.54
40596;BME280;26304;48.794;9.820;2022-10-16T02:22:22;96292.66;;;18.75;73.49
40596;BME280;26304;48.794;9.820;2022-10-16T02:28:12;96301.69;;;18.74;73.25
40596;BME280;26304;48.794;9.820;2022-10-16T02:33:58;96291.53;;;18.72;73.17
40596;BME280;26304;48.794;9.820;2022-10-16T02:39:43;96296.81;;;18.76;72.92
40596;BME280;26304;48.794;9.820;2022-10-16T02:45:25;96305.44;;;18.76;73.02
40596;BME280;26304;48.794;9.820;2022-10-16T02:51:08;96322.75;;;18.70;72.81
40596;BME280;26304;48.794;9.820;2022-10-16T02:56:52;96325.78;;;18.76;72.85
40596;BME280;26304;48.794;9.820;2022-10-16T03:02:34;96332.16;;;18.75;73.02
40596;BME280;26304;48.794;9.820;2022-10-16T03:08:17;96315.59;;;18.74;73.20
40596;BME280;26304;48.794;9.820;2022-10-16T03:14:05;96299.81;;;18.74;73.04
40596;BME280;26304;48.794;9.820;2022-10-16T03:19:48;96286.66;;;18.74;73.10
40596;BME280;26304;48.794;9.820;2022-10-16T03:25:31;96296.06;;;18.75;72.83
40596;BME280;26304;48.794;9.820;2022-10-16T03:31:14;96292.69;;;18.78;73.08
40596;BME280;26304;48.794;9.820;2022-10-16T03:36:57;96301.31;;;18.82;72.61
40596;BME280;26304;48.794;9.820;2022-10-16T03:42:39;96298.69;;;18.79;72.98
40596;BME280;26304;48.794;9.820;2022-10-16T03:48:23;96307.78;;;18.92;72.56
40596;BME280;26304;48.794;9.820;2022-10-16T03:54:05;96310.81;;;19.01;73.50
40596;BME280;26304;48.794;9.820;2022-10-16T03:59:47;96302.53;;;19.06;73.52
40596;BME280;26304;48.794;9.820;2022-10-16T04:05:31;96305.53;;;19.05;73.73
40596;BME280;26304;48.794;9.820;2022-10-16T04:11:14;96296.88;;;19.01;73.95
40596;BME280;26304;48.794;9.820;2022-10-16T04:16:56;96320.22;;;19.06;73.48
40596;BME280;26304;48.794;9.820;2022-10-16T04:22:40;96311.19;;;19.11;73.15
40596;BME280;26304;48.794;9.820;2022-10-16T04:28:22;96329.66;;;19.03;73.39
40596;BME280;26304;48.794;9.820;2022-10-16T04:34:05;96328.91;;;19.14;73.32
40596;BME280;26304;48.794;9.820;2022-10-16T04:39:48;96340.16;;;19.00;73.47
40596;BME280;26304;48.794;9.820;2022-10-16T04:45:31;96339.72;;;18.83;73.97
40596;BME280;26304;48.794;9.820;2022-10-16T04:51:13;96340.09;;;18.78;74.38
40596;BME280;26304;48.794;9.820;2022-10-16T04:56:57;96338.56;;;18.81;74.08
40596;BME280;26304;48.794;9.820;2022-10-16T05:02:39;96341.28;;;18.95;73.64
40596;BME280;26304;48.794;9.820;2022-10-16T05:08:22;96340.91;;;18.97;73.85
40596;BME280;26304;48.794;9.820;2022-10-16T05:14:06;96344.31;;;19.08;73.69
40596;BME280;26304;48.794;9.820;2022-10-16T05:19:48;96356.00;;;19.11;73.29
40596;BME280;26304;48.794;9.820;2022-10-16T05:25:30;96356.00;;;19.07;72.39
40596;BME280;26304;48.794;9.820;2022-10-16T05:31:14;96353.00;;;19.09;72.57
40596;BME280;26304;48.794;9.820;2022-10-16T05:36:57;96359.00;;;19.09;73.05
40596;BME280;26304;48.794;9.820;2022-10-16T05:42:39;96359.75;;;19.02;72.65
40596;BME280;26304;48.794;9.820;2022-10-16T05:48:23;96365.00;;;19.06;73.25
40596;BME280;26304;48.794;9.820;2022-10-16T05:54:06;96363.53;;;19.12;73.49
40596;BME280;26304;48.794;9.820;2022-10-16T05:59:48;96371.06;;;19.10;72.71
40596;BME280;26304;48.794;9.820;2022-10-16T06:05:35;96379.72;;;19.07;73.03
40596;BME280;26304;48.794;9.820;2022-10-16T06:11:23;96381.97;;;19.12;72.75
40596;BME280;26304;48.794;9.820;2022-10-16T06:17:05;96386.88;;;19.10;72.36
40596;BME280;26304;48.794;9.820;2022-10-16T06:22:49;96392.13;;;19.10;72.49
40596;BME280;26304;48.794;9.820;2022-10-16T06:28:31;96393.63;;;19.04;72.60
40596;BME280;26304;48.794;9.820;2022-10-16T06:34:14;96412.06;;;19.04;72.92
40596;BME280;26304;48.794;9.820;2022-10-16T06:39:58;96426.75;;;19.12;72.88
40596;BME280;26304;48.794;9.820;2022-10-16T06:45:41;96428.25;;;19.06;73.19
40596;BME280;26304;48.794;9.820;2022-10-16T06:51:24;96430.56;;;19.15;73.37
40596;BME280;26304;48.794;9.820;2022-10-16T06:57:08;96432.03;;;19.16;73.46
40596;BME280;26304;48.794;9.820;2022-10-16T07:02:50;96438.47;;;19.18;74.06
40596;BME280;26304;48.794;9.820;2022-10-16T07:08:33;96433.16;;;19.11;73.61
40596;BME280;26304;48.794;9.820;2022-10-16T07:14:19;96446.00;;;19.16;74.25
40596;BME280;26304;48.794;9.820;2022-10-16T07:20:02;96460.66;;;19.17;73.82
40596;BME280;26304;48.794;9.820;2022-10-16T07:25:45;96458.00;;;19.14;73.27
40596;BME280;26304;48.794;9.820;2022-10-16T07:31:28;96464.78;;;19.11;73.28
40596;BME280;26304;48.794;9.820;2022-10-16T07:37:11;96464.41;;;19.09;73.47
40596;BME280;26304;48.794;9.820;2022-10-16T07:42:53;96468.66;;;19.35;74.61
40596;BME280;26304;48.794;9.820;2022-10-16T07:48:37;96490.84;;;19.31;74.35
40596;BME280;26304;48.794;9.820;2022-10-16T07:54:19;96494.63;;;19.44;75.28
40596;BME280;26304;48.794;9.820;2022-10-16T08:00:03;96507.41;;;19.35;75.34
40596;BME280;26304;48.794;9.820;2022-10-16T08:05:48;96518.75;;;19.46;75.18
40596;BME280;26304;48.794;9.820;2022-10-16T08:11:31;96519.47;;;19.39;75.13
40596;BME280;26304;48.794;9.820;2022-10-16T08:17:15;96530.41;;;19.38;75.26
40596;BME280;26304;48.794;9.820;2022-10-16T08:22:59;96526.69;;;19.50;74.93
40596;BME280;26304;48.794;9.820;2022-10-16T08:28:41;96534.56;;;19.46;74.50
40596;BME280;26304;48.794;9.820;2022-10-16T08:34:24;96530.03;;;19.43;74.50
40596;BME280;26304;48.794;9.820;2022-10-16T08:40:17;96538.38;;;19.59;76.19
40596;BME280;26304;48.794;9.820;2022-10-16T08:46:11;96540.28;;;19.63;75.94
40596;BME280;26304;48.794;9.820;2022-10-16T08:51:56;96545.16;;;19.60;75.85
40596;BME280;26304;48.794;9.820;2022-10-16T08:57:40;96544.44;;;19.71;74.89
40596;BME280;26304;48.794;9.820;2022-10-16T09:03:41;96554.22;;;19.67;74.68
40596;BME280;26304;48.794;9.820;2022-10-16T09:09:53;96560.28;;;19.71;74.37
40596;BME280;26304;48.794;9.820;2022-10-16T09:15:47;96574.22;;;19.75;73.89
40596;BME280;26304;48.794;9.820;2022-10-16T09:21:35;96577.66;;;19.79;75.46
40596;BME280;26304;48.794;9.820;2022-10-16T09:27:18;96586.34;;;19.90;74.16
40596;BME280;26304;48.794;9.820;2022-10-16T09:33:02;96586.38;;;19.98;75.59
40596;BME280;26304;48.794;9.820;2022-10-16T09:38:46;96597.34;;;20.10;75.10
40596;BME280;26304;48.794;9.820;2022-10-16T09:44:30;96585.63;;;20.15;74.65
40596;BME280;26304;48.794;9.820;2022-10-16T09:50:23;96590.56;;;20.20;74.07
40596;BME280;26304;48.794;9.820;2022-10-16T09:56:09;96596.59;;;20.24;73.86
40596;BME280;26304;48.794;9.820;2022-10-16T10:01:54;96603.75;;;20.31;73.79
40596;BME280;26304;48.794;9.820;2022-10-16T10:07:43;96600.41;;;20.38;73.24
40596;BME280;26304;48.794;9.820;2022-10-16T10:13:27;96615.50;;;20.41;73.01
40596;BME280;26304;48.794;9.820;2022-10-16T10:19:14;96617.00;;;20.35;73.09
40596;BME280;26304;48.794;9.820;2022-10-16T10:31:27;96599.66;;;20.55;71.86
40596;BME280;26304;48.794;9.820;2022-10-16T10:37:25;96600.41;;;20.77;71.44
40596;BME280;26304;48.794;9.820;2022-10-16T10:43:18;96604.94;;;20.98;69.45
40596;BME280;26304;48.794;9.820;2022-10-16T10:49:19;96612.06;;;21.19;68.25
40596;BME280;26304;48.794;9.820;2022-10-16T10:55:17;96610.13;;;21.41;67.79
40596;BME280;26304;48.794;9.820;2022-10-16T11:01:06;96624.91;;;21.21;68.41
40596;BME280;26304;48.794;9.820;2022-10-16T11:06:55;96621.47;;;21.38;68.11
40596;BME280;26304;48.794;9.820;2022-10-16T11:12:42;96616.53;;;21.40;66.43
40596;BME280;26304;48.794;9.820;2022-10-16T11:18:32;96615.47;;;21.27;66.80
40596;BME280;26304;48.794;9.820;2022-10-16T11:24:20;96619.19;;;21.55;62.00
40596;BME280;26304;48.794;9.820;2022-10-16T11:30:14;96614.25;;;21.53;63.30
40596;BME280;26304;48.794;9.820;2022-10-16T11:36:03;96611.94;;;21.66;63.68
40596;BME280;26304;48.794;9.820;2022-10-16T11:41:50;96608.84;;;21.86;63.20
40596;BME280;26304;48.794;9.820;2022-10-16T11:47:35;96606.91;;;21.97;63.24
40596;BME280;26304;48.794;9.820;2022-10-16T11:53:24;96611.72;;;22.09;61.66
40596;BME280;26304;48.794;9.820;2022-10-16T11:59:20;96611.34;;;22.11;61.92
40596;BME280;26304;48.794;9.820;2022-10-16T12:05:16;96604.09;;;22.22;60.99
40596;BME280;26304;48.794;9.820;2022-10-16T12:11:08;96607.84;;;22.36;60.17
40596;BME280;26304;48.794;9.820;2022-10-16T12:16:54;96601.34;;;22.44;59.78
40596;BME280;26304;48.794;9.820;2022-10-16T12:22:41;96603.66;;;22.35;61.02
40596;BME280;26304;48.794;9.820;2022-10-16T12:28:27;96594.97;;;22.30;61.84
40596;BME280;26304;48.794;9.820;2022-10-16T12:34:22;96592.34;;;22.30;61.97
40596;BME280;26304;48.794;9.820;2022-10-16T12:40:13;96590.78;;;22.40;61.54
40596;BME280;26304;48.794;9.820;2022-10-16T12:46:03;96586.72;;;22.18;62.90
40596;BME280;26304;48.794;9.820;2022-10-16T12:51:47;96584.31;;;22.41;61.90
40596;BME280;26304;48.794;9.820;2022-10-16T12:57:45;96597.28;;;22.77;58.81
40596;BME280;26304;48.794;9.820;2022-10-16T13:10:17;96605.75;;;22.61;60.81
40596;BME280;26304;48.794;9.820;2022-10-16T13:16:12;96613.41;;;22.48;60.91
40596;BME280;26304;48.794;9.820;2022-10-16T13:22:04;96621.19;;;22.70;59.01
40596;BME280;26304;48.794;9.820;2022-10-16T13:27:53;96617.66;;;22.39;61.69
40596;BME280;26304;48.794;9.820;2022-10-16T13:33:48;96625.63;;;22.28;61.21
40596;BME280;26304;48.794;9.820;2022-10-16T13:39:31;96634.72;;;22.27;62.86
40596;BME280;26304;48.794;9.820;2022-10-16T13:45:20;96637.81;;;22.18;63.01
40596;BME280;26304;48.794;9.820;2022-10-16T13:51:05;96641.16;;;22.22;62.17
40596;BME280;26304;48.794;9.820;2022-10-16T13:56:48;96634.75;;;22.23;64.09
40596;BME280;26304;48.794;9.820;2022-10-16T14:02:34;96629.09;;;22.77;59.47
40596;BME280;26304;48.794;9.820;2022-10-16T14:08:18;96634.41;;;22.77;61.49
40596;BME280;26304;48.794;9.820;2022-10-16T14:14:01;96631.53;;;22.54;61.19
40596;BME280;26304;48.794;9.820;2022-10-16T14:19:48;96627.88;;;22.40;63.00
40596;BME280;26304;48.794;9.820;2022-10-16T14:25:32;96628.63;;;22.37;62.58
40596;BME280;26304;48.794;9.820;2022-10-16T14:31:27;96631.72;;;22.18;63.26
40596;BME280;26304;48.794;9.820;2022-10-16T14:37:20;96629.47;;;22.16;62.53
40596;BME280;26304;48.794;9.820;2022-10-16T14:43:05;96625.38;;;22.11;62.08
40596;BME280;26304;48.794;9.820;2022-10-16T14:48:49;96628.38;;;22.13;62.39
40596;BME280;26304;48.794;9.820;2022-10-16T14:54:33;96634.72;;;22.27;62.27
40596;BME280;26304;48.794;9.820;2022-10-16T15:00:20;96635.47;;;22.24;63.01
40596;BME280;26304;48.794;9.820;2022-10-16T15:06:09;96627.94;;;22.22;62.28
40596;BME280;26304;48.794;9.820;2022-10-16T15:11:54;96630.97;;;22.21;62.74
40596;BME280;26304;48.794;9.820;2022-10-16T15:17:36;96637.03;;;22.18;62.88
40596;BME280;26304;48.794;9.820;2022-10-16T15:23:20;96635.16;;;22.14;62.91
40596;BME280;26304;48.794;9.820;2022-10-16T15:29:05;96629.94;;;22.04;63.25
40596;BME280;26304;48.794;9.820;2022-10-16T15:34:47;96636.78;;;21.94;63.78
40596;BME280;26304;48.794;9.820;2022-10-16T15:40:30;96645.13;;;21.85;63.66
40596;BME280;26304;48.794;9.820;2022-10-16T15:46:14;96658.03;;;21.80;63.39
40596;BME280;26304;48.794;9.820;2022-10-16T15:51:56;96649.34;;;21.72;63.26
40596;BME280;26304;48.794;9.820;2022-10-16T15:57:39;96658.06;;;21.69;63.08
40596;BME280;26304;48.794;9.820;2022-10-16T16:03:25;96653.16;;;21.67;63.34
40596;BME280;26304;48.794;9.820;2022-10-16T16:09:08;96663.75;;;21.64;63.33
40596;BME280;26304;48.794;9.820;2022-10-16T16:14:50;96659.97;;;21.61;63.65
40596;BME280;26304;48.794;9.820;2022-10-16T16:20:34;96663.75;;;21.60;63.69
40596;BME280;26304;48.794;9.820;2022-10-16T16:26:23;96667.19;;;21.50;64.10
40596;BME280;26304;48.794;9.820;2022-10-16T16:32:07;96675.84;;;21.47;64.44
40596;BME280;26304;48.794;9.820;2022-10-16T16:37:51;96674.00;;;21.51;64.22
40596;BME280;26304;48.794;9.820;2022-10-16T16:43:33;96680.38;;;21.64;65.80
40596;BME280;26304;48.794;9.820;2022-10-16T16:49:15;96677.34;;;21.69;66.13
40596;BME280;26304;48.794;9.820;2022-10-16T16:54:59;96679.56;;;21.82;65.10
40596;BME280;26304;48.794;9.820;2022-10-16T17:00:45;96690.88;;;21.93;64.94
40596;BME280;26304;48.794;9.820;2022-10-16T17:06:28;96704.50;;;21.88;64.98
40596;BME280;26304;48.794;9.820;2022-10-16T17:12:12;96715.84;;;21.85;65.31
40596;BME280;26304;48.794;9.820;2022-10-16T17:17:55;96710.59;;;21.63;65.54
40596;BME280;26304;48.794;9.820;2022-10-16T17:23:37;96711.00;;;21.54;66.12
40596;BME280;26304;48.794;9.820;2022-10-16T17:29:21;96715.53;;;21.50;65.82
40596;BME280;26304;48.794;9.820;2022-10-16T17:35:04;96716.69;;;21.53;66.18
40596;BME280;26304;48.794;9.820;2022-10-16T17:40:47;96724.63;;;21.53;65.64
40596;BME280;26304;48.794;9.820;2022-10-16T17:46:31;96724.25;;;21.51;65.95
40596;BME280;26304;48.794;9.820;2022-10-16T17:52:14;96723.09;;;21.41;66.12
40596;BME280;26304;48.794;9.820;2022-10-16T17:57:56;96726.50;;;21.45;66.76
40596;BME280;26304;48.794;9.820;2022-10-16T18:03:40;96727.22;;;21.46;66.17
40596;BME280;26304;48.794;9.820;2022-10-16T18:09:23;96729.16;;;21.31;65.93
40596;BME280;26304;48.794;9.820;2022-10-16T18:15:06;96734.44;;;21.34;65.50
40596;BME280;26304;48.794;9.820;2022-10-16T18:20:56;96742.38;;;21.34;65.21
40596;BME280;26304;48.794;9.820;2022-10-16T18:26:39;96758.25;;;21.41;65.94
40596;BME280;26304;48.794;9.820;2022-10-16T18:32:21;96762.78;;;21.59;65.77
40596;BME280;26304;48.794;9.820;2022-10-16T18:38:05;96764.28;;;21.38;65.93
40596;BME280;26304;48.794;9.820;2022-10-16T18:43:47;96771.06;;;21.39;65.79
40596;BME280;26304;48.794;9.820;2022-10-16T18:49:30;96780.94;;;21.50;66.22
40596;BME280;26304;48.794;9.820;2022-10-16T18:55:14;96780.94;;;21.50;66.57
40596;BME280;26304;48.794;9.820;2022-10-16T19:01:02;96782.81;;;21.53;65.85
40596;BME280;26304;48.794;9.820;2022-10-16T19:06:46;96787.72;;;21.58;65.58
40596;BME280;26304;48.794;9.820;2022-10-16T19:12:30;96786.56;;;21.37;65.70
40596;BME280;26304;48.794;9.820;2022-10-16T19:18:13;96783.94;;;21.30;66.00
40596;BME280;26304;48.794;9.820;2022-10-16T19:23:56;96788.81;;;21.28;66.13
40596;BME280;26304;48.794;9.820;2022-10-16T19:29:40;96801.25;;;21.02;65.72
40596;BME280;26304;48.794;9.820;2022-10-16T19:35:23;96808.78;;;20.93;65.48
40596;BME280;26304;48.794;9.820;2022-10-16T19:41:06;96804.66;;;20.89;64.60
40596;BME280;26304;48.794;9.820;2022-10-16T19:46:50;96813.34;;;20.85;64.00
40596;BME280;26304;48.794;9.820;2022-10-16T19:52:33;96822.75;;;20.79;64.39
40596;BME280;26304;48.794;9.820;2022-10-16T19:58:15;96817.81;;;20.71;63.59
40596;BME280;26304;48.794;9.820;2022-10-16T20:03:59;96819.31;;;20.68;63.88
40596;BME280;26304;48.794;9.820;2022-10-16T20:09:41;96825.41;;;20.79;62.89
40596;BME280;26304;48.794;9.820;2022-10-16T20:15:24;96825.34;;;20.68;63.67
40596;BME280;26304;48.794;9.820;2022-10-16T20:21:12;96829.91;;;20.72;63.36
40596;BME280;26304;48.794;9.820;2022-10-16T20:26:55;96828.38;;;20.71;63.44
40596;BME280;26304;48.794;9.820;2022-10-16T20:32:40;96833.63;;;20.63;64.06
40596;BME280;26304;48.794;9.820;2022-10-16T20:38:24;96840.41;;;20.64;65.34
40596;BME280;26304;48.794;9.820;2022-10-16T20:44:06;96841.13;;;20.54;65.51
40596;BME280;26304;48.794;9.820;2022-10-16T20:49:49;96852.44;;;20.51;64.75
40596;BME280;26304;48.794;9.820;2022-10-16T20:55:36;96855.06;;;20.55;64.80
40596;BME280;26304;48.794;9.820;2022-10-16T21:01:20;96870.16;;;20.54;64.90
40596;BME280;26304;48.794;9.820;2022-10-16T21:07:03;96877.31;;;20.50;64.67
40596;BME280;26304;48.794;9.820;2022-10-16T21:12:46;96884.84;;;20.41;64.94
40596;BME280;26304;48.794;9.820;2022-10-16T21:18:29;96881.03;;;20.35;64.98
40596;BME280;26304;48.794;9.820;2022-10-16T21:24:11;96875.66;;;20.20;64.59
40596;BME280;26304;48.794;9.820;2022-10-16T21:29:55;96886.97;;;20.21;63.70
40596;BME280;26304;48.794;9.820;2022-10-16T21:35:37;96891.09;;;20.18;65.09
40596;BME280;26304;48.794;9.820;2022-10-16T21:41:21;96886.53;;;20.11;64.79
40596;BME280;26304;48.794;9.820;2022-10-16T21:47:05;96892.97;;;20.14;64.26
40596;BME280;26304;48.794;9.820;2022-10-16T21:52:48;96894.53;;;20.22;64.32
40596;BME280;26304;48.794;9.820;2022-10-16T21:58:31;96894.88;;;20.17;64.41
40596;BME280;26304;48.794;9.820;2022-10-16T22:04:15;96888.31;;;19.96;65.02
40596;BME280;26304;48.794;9.820;2022-10-16T22:09:57;96883.81;;;20.01;64.33
40596;BME280;26304;48.794;9.820;2022-10-16T22:15:47;96894.06;;;20.09;64.09
40596;BME280;26304;48.794;9.820;2022-10-16T22:21:34;96895.88;;;19.98;64.48
40596;BME280;26304;48.794;9.820;2022-10-16T22:27:17;96889.09;;;20.01;64.50
40596;BME280;26304;48.794;9.820;2022-10-16T22:32:59;96885.28;;;19.94;64.30
40596;BME280;26304;48.794;9.820;2022-10-16T22:38:43;96883.69;;;19.86;63.41
40596;BME280;26304;48.794;9.820;2022-10-16T22:44:25;96886.38;;;19.90;64.17
40596;BME280;26304;48.794;9.820;2022-10-16T22:50:08;96887.53;;;19.92;63.83
40596;BME280;26304;48.794;9.820;2022-10-16T22:55:52;96886.06;;;19.99;63.53
40596;BME280;26304;48.794;9.820;2022-10-16T23:01:36;96891.88;;;19.74;64.06
40596;BME280;26304;48.794;9.820;2022-10-16T23:07:19;96890.50;;;19.87;63.81
40596;BME280;26304;48.794;9.820;2022-10-16T23:13:03;96902.75;;;19.69;63.26
40596;BME280;26304;48.794;9.820;2022-10-16T23:18:46;96898.53;;;19.60;63.15
40596;BME280;26304;48.794;9.820;2022-10-16T23:24:29;96898.88;;;19.55;63.60
40596;BME280;26304;48.794;9.820;2022-10-16T23:30:13;96893.25;;;19.57;63.00
40596;BME280;26304;48.794;9.820;2022-10-16T23:35:55;96907.88;;;19.51;63.44
40596;BME280;26304;48.794;9.820;2022-10-16T23:41:38;96902.31;;;19.59;62.85
40596;BME280;26304;48.794;9.820;2022-10-16T23:47:21;96910.63;;;19.62;62.71
40596;BME280;26304;48.794;9.820;2022-10-16T23:53:04;96915.81;;;19.54;62.33
40596;BME280;26304;48.794;9.820;2022-10-16T23:58:46;96919.25;;;19.58;63.09
